TK981 LTAS-LTAC
Flight info
| Callsign | TK981 |
|---|---|
| Flight time | N/A |
| Altitude | 19000 |
| Route | NASIM |
| Aircraft | TBM9/L-SDFGRWY/S |
Departure
| Time | N/A |
|---|---|
| Airport | Zonguldak Çaycuma Airport (LTAS) |
Arrival
| Time | 2026-04-28 13:11 |
|---|---|
| Airport | Esenboğa International Airport (LTAC) |
| Time | Latitude | Longitude | Altitude | Speed | Heading |
|---|---|---|---|---|---|
| 2026-04-28 12:52 | 41.00396 | 32.36798 | 16806 ft | 256 kts | 188° |
| 2026-04-28 12:53 | 40.93447 | 32.36233 | 17655 ft | 261 kts | 187° |
| 2026-04-28 12:53 | 40.91632 | 32.36087 | 17859 ft | 261 kts | 187° |
| 2026-04-28 12:54 | 40.89811 | 32.35939 | 18078 ft | 263 kts | 187° |
| 2026-04-28 12:54 | 40.87983 | 32.35791 | 18377 ft | 264 kts | 187° |
| 2026-04-28 12:54 | 40.86142 | 32.35641 | 18617 ft | 265 kts | 188° |
| 2026-04-28 12:54 | 40.84296 | 32.35492 | 18847 ft | 267 kts | 188° |
| 2026-04-28 12:55 | 40.82441 | 32.35341 | 19047 ft | 269 kts | 187° |
| 2026-04-28 12:55 | 40.80538 | 32.35184 | 19058 ft | 278 kts | 187° |
| 2026-04-28 12:55 | 40.78582 | 32.35022 | 19059 ft | 285 kts | 187° |
| 2026-04-28 12:55 | 40.76591 | 32.34861 | 19061 ft | 289 kts | 187° |
| 2026-04-28 12:56 | 40.74571 | 32.34699 | 19064 ft | 292 kts | 187° |
| 2026-04-28 12:56 | 40.72534 | 32.34537 | 19051 ft | 294 kts | 187° |
| 2026-04-28 12:56 | 40.70488 | 32.34371 | 19052 ft | 296 kts | 187° |
| 2026-04-28 12:56 | 40.68427 | 32.34204 | 19052 ft | 297 kts | 187° |
| 2026-04-28 12:57 | 40.66364 | 32.34039 | 19052 ft | 297 kts | 187° |
| 2026-04-28 12:57 | 40.64289 | 32.33872 | 19046 ft | 298 kts | 187° |
| 2026-04-28 12:57 | 40.62245 | 32.33708 | 19047 ft | 298 kts | 187° |
| 2026-04-28 12:57 | 40.60170 | 32.33707 | 19026 ft | 301 kts | 176° |
| 2026-04-28 12:58 | 40.58100 | 32.34367 | 19028 ft | 304 kts | 163° |
| 2026-04-28 12:58 | 40.56236 | 32.35615 | 19029 ft | 307 kts | 149° |
| 2026-04-28 12:58 | 40.54606 | 32.37445 | 19029 ft | 310 kts | 135° |
| 2026-04-28 12:58 | 40.53225 | 32.39627 | 19030 ft | 309 kts | 131° |
| 2026-04-28 12:59 | 40.51859 | 32.41800 | 19027 ft | 308 kts | 132° |
| 2026-04-28 12:59 | 40.50478 | 32.43974 | 18880 ft | 313 kts | 132° |
| 2026-04-28 12:59 | 40.49062 | 32.46198 | 18649 ft | 318 kts | 132° |
| 2026-04-28 12:59 | 40.47601 | 32.48489 | 17698 ft | 338 kts | 132° |
| 2026-04-28 13:00 | 40.46081 | 32.50874 | 16900 ft | 345 kts | 131° |
| 2026-04-28 13:00 | 40.44558 | 32.53287 | 16406 ft | 341 kts | 133° |
| 2026-04-28 13:00 | 40.43013 | 32.55644 | 15838 ft | 339 kts | 133° |
| 2026-04-28 13:00 | 40.41670 | 32.58152 | 15493 ft | 334 kts | 118° |
| 2026-04-28 13:01 | 40.40797 | 32.60992 | 15018 ft | 334 kts | 110° |
| 2026-04-28 13:01 | 40.40070 | 32.63892 | 14519 ft | 334 kts | 109° |
| 2026-04-28 13:01 | 40.39368 | 32.66757 | 14022 ft | 334 kts | 110° |
| 2026-04-28 13:01 | 40.38554 | 32.69615 | 13489 ft | 332 kts | 113° |
| 2026-04-28 13:02 | 40.37699 | 32.72414 | 12980 ft | 329 kts | 112° |
| 2026-04-28 13:02 | 40.36890 | 32.75231 | 12481 ft | 327 kts | 111° |
| 2026-04-28 13:02 | 40.36103 | 32.78017 | 11985 ft | 325 kts | 112° |
| 2026-04-28 13:02 | 40.35274 | 32.80731 | 11502 ft | 322 kts | 114° |
| 2026-04-28 13:03 | 40.34388 | 32.83422 | 11012 ft | 320 kts | 115° |
| 2026-04-28 13:03 | 40.33450 | 32.86054 | 10532 ft | 312 kts | 117° |
| 2026-04-28 13:03 | 40.32497 | 32.88533 | 10070 ft | 299 kts | 119° |
| 2026-04-28 13:03 | 40.31527 | 32.90904 | 9601 ft | 289 kts | 120° |
| 2026-04-28 13:04 | 40.30542 | 32.93167 | 9165 ft | 283 kts | 122° |
| 2026-04-28 13:04 | 40.29539 | 32.95373 | 8754 ft | 280 kts | 123° |
| 2026-04-28 13:04 | 40.28519 | 32.97512 | 8351 ft | 279 kts | 124° |
| 2026-04-28 13:04 | 40.27453 | 32.99636 | 7989 ft | 277 kts | 126° |
| 2026-04-28 13:05 | 40.26366 | 33.01724 | 7605 ft | 276 kts | 123° |
| 2026-04-28 13:05 | 40.25640 | 33.03938 | 7232 ft | 250 kts | 109° |
| 2026-04-28 13:05 | 40.25159 | 33.06018 | 6730 ft | 230 kts | 108° |
| 2026-04-28 13:05 | 40.24729 | 33.07982 | 6181 ft | 219 kts | 108° |
| 2026-04-28 13:06 | 40.24326 | 33.09862 | 5630 ft | 211 kts | 108° |
| 2026-04-28 13:06 | 40.23763 | 33.11505 | 5390 ft | 187 kts | 134° |
| 2026-04-28 13:06 | 40.22737 | 33.12255 | 5145 ft | 160 kts | 178° |
| 2026-04-28 13:06 | 40.21765 | 33.11867 | 4906 ft | 144 kts | 225° |
| 2026-04-28 13:07 | 40.21429 | 33.10703 | 4829 ft | 137 kts | 277° |
| 2026-04-28 13:07 | 40.21893 | 33.09682 | 4827 ft | 132 kts | 307° |
| 2026-04-28 13:07 | 40.22074 | 33.08592 | 4810 ft | 125 kts | 251° |
| 2026-04-28 13:07 | 40.21710 | 33.08016 | 4824 ft | 124 kts | 215° |
| 2026-04-28 13:08 | 40.20750 | 33.07226 | 4789 ft | 125 kts | 218° |
| 2026-04-28 13:08 | 40.20013 | 33.06547 | 4622 ft | 133 kts | 220° |
| 2026-04-28 13:08 | 40.19246 | 33.05827 | 4431 ft | 142 kts | 220° |
| 2026-04-28 13:08 | 40.18469 | 33.05094 | 4228 ft | 127 kts | 221° |
| 2026-04-28 13:09 | 40.17858 | 33.04513 | 4071 ft | 98 kts | 222° |
| 2026-04-28 13:09 | 40.17308 | 33.03980 | 3937 ft | 103 kts | 223° |
| 2026-04-28 13:09 | 40.16747 | 33.03443 | 3793 ft | 91 kts | 224° |
| 2026-04-28 13:09 | 40.16215 | 33.02935 | 3684 ft | 100 kts | 223° |
| 2026-04-28 13:10 | 40.15651 | 33.02388 | 3547 ft | 95 kts | 221° |
| 2026-04-28 13:10 | 40.15121 | 33.01878 | 3419 ft | 98 kts | 220° |
| 2026-04-28 13:10 | 40.14577 | 33.01358 | 3289 ft | 94 kts | 220° |
| 2026-04-28 13:10 | 40.14071 | 33.00874 | 3165 ft | 86 kts | 222° |
| 2026-04-28 13:11 | 40.13645 | 33.00442 | 3126 ft | 69 kts | 219° |
| 2026-04-28 13:11 | 40.13345 | 33.00159 | 3123 ft | 55 kts | 216° |
| 2026-04-28 13:11 | 40.13111 | 32.99921 | 3121 ft | 19 kts | 215° |
| 2026-04-28 13:11 | 40.12978 | 32.99798 | 3119 ft | 29 kts | 216° |
| 2026-04-28 13:12 | 40.12791 | 32.99628 | 3118 ft | 35 kts | 214° |
| 2026-04-28 13:12 | 40.12602 | 32.99459 | 3116 ft | 31 kts | 215° |
| 2026-04-28 13:12 | 40.12431 | 32.99306 | 3114 ft | 29 kts | 214° |
| 2026-04-28 13:12 | 40.12253 | 32.99213 | 3112 ft | 27 kts | 190° |
| 2026-04-28 13:13 | 40.12135 | 32.99195 | 3111 ft | 8 kts | 183° |
| 2026-04-28 13:13 | 40.12064 | 32.99186 | 3111 ft | 13 kts | 187° |
| 2026-04-28 13:13 | 40.11966 | 32.99147 | 3109 ft | 17 kts | 207° |
| 2026-04-28 13:13 | 40.11867 | 32.99065 | 3108 ft | 15 kts | 209° |
| 2026-04-28 13:14 | 40.11788 | 32.99062 | 3108 ft | 11 kts | 148° |
| 2026-04-28 13:14 | 40.11781 | 32.99143 | 3108 ft | 11 kts | 62° |
| 2026-04-28 13:14 | 40.11807 | 32.99206 | 3108 ft | 13 kts | 68° |
| 2026-04-28 13:14 | 40.11833 | 32.99321 | 3108 ft | 10 kts | 73° |
| 2026-04-28 13:15 | 40.11855 | 32.99379 | 3108 ft | 6 kts | 27° |
| 2026-04-28 13:15 | 40.11910 | 32.99370 | 3108 ft | 10 kts | 347° |
| 2026-04-28 13:15 | 40.11926 | 32.99365 | 3108 ft | 0 kts | 347° |